Time;durP1;ratioP1;P1;durP2;ratioP2;P2;SDS_P1;SDS_P2;PMS_P1;PMS_P2;Temp;Humidity;BMP_temperature;BMP_pressure;BME280_temperature;BME280_humidity;BME280_pressure;Samples;Min_cycle;Max_cycle;Signal;HPM_P1;HPM_P2
2021/04/09 00:01:35;;;;;;;2.47;1.80;;;0.20;99.90;;;;;;4975978;28;20800;-76
2021/04/09 00:04:01;;;;;;;4.63;2.10;;;-0.90;99.90;;;;;;4979152;28;20184;-76
2021/04/09 00:06:27;;;;;;;2.60;1.90;;;-0.90;99.90;;;;;;4975396;28;20962;-76
2021/04/09 00:08:52;;;;;;;2.17;1.90;;;-0.90;99.90;;;;;;4975202;28;20184;-76
2021/04/09 00:11:18;;;;;;;3.63;2.20;;;-0.90;99.90;;;;;;4976526;28;20195;-76
2021/04/09 00:13:44;;;;;;;2.40;2.10;;;-0.90;99.90;;;;;;4975276;28;20271;-76
2021/04/09 00:16:10;;;;;;;4.37;1.93;;;-0.90;99.90;;;;;;4976339;28;20231;-76
2021/04/09 00:18:35;;;;;;;4.20;2.27;;;-0.90;99.90;;;;;;4976364;28;20196;-77
2021/04/09 00:21:01;;;;;;;2.60;1.73;;;-0.80;99.90;;;;;;4976367;28;20635;-77
2021/04/09 00:23:27;;;;;;;6.07;1.97;;;-0.70;99.90;;;;;;4976370;28;20187;-77
2021/04/09 00:25:53;;;;;;;2.03;1.50;;;-0.60;99.90;;;;;;4976153;28;20777;-76
2021/04/09 00:28:19;;;;;;;2.37;1.60;;;;;;;;;;4976163;28;20198;-77
2021/04/09 00:30:45;;;;;;;3.40;1.83;;;-0.70;99.90;;;;;;4976258;28;20181;-76
2021/04/09 00:33:11;;;;;;;4.80;2.50;;;-0.60;99.90;;;;;;4976230;28;20978;-77
2021/04/09 00:35:36;;;;;;;4.03;1.77;;;;;;;;;;4974783;28;20620;-77
2021/04/09 00:38:02;;;;;;;3.37;1.70;;;-0.60;99.90;;;;;;4975982;28;20292;-77
2021/04/09 00:40:28;;;;;;;2.73;2.10;;;-0.60;99.90;;;;;;4975993;28;20183;-77
2021/04/09 00:42:54;;;;;;;2.10;1.67;;;-0.30;99.90;;;;;;4976264;28;20210;-77
2021/04/09 00:45:20;;;;;;;1.57;1.33;;;-0.70;99.90;;;;;;4975854;28;20227;-77
2021/04/09 00:47:46;;;;;;;5.17;1.73;;;-0.60;99.90;;;;;;4975997;28;20200;-77
2021/04/09 00:50:14;;;;;;;3.03;1.73;;;0.60;99.90;;;;;;4976125;28;20823;-77
2021/04/09 00:52:40;;;;;;;3.90;2.03;;;-0.60;99.90;;;;;;4975974;28;20493;-77
2021/04/09 00:55:08;;;;;;;2.60;1.60;;;-0.60;99.90;;;;;;4974480;28;20495;-77
2021/04/09 00:57:36;;;;;;;3.83;1.90;;;-0.70;99.90;;;;;;4975552;28;20451;-77
2021/04/09 01:00:05;;;;;;;3.27;2.03;;;-0.70;99.90;;;;;;4975523;28;20422;-77
2021/04/09 01:02:31;;;;;;;3.13;1.50;;;-0.60;99.90;;;;;;4975621;28;20476;-77
2021/04/09 01:04:57;;;;;;;2.73;1.37;;;-0.60;99.90;;;;;;4975584;28;20424;-77
2021/04/09 01:07:24;;;;;;;1.57;1.27;;;-0.60;99.90;;;;;;4975786;28;20203;-77
2021/04/09 01:09:50;;;;;;;2.33;1.60;;;;;;;;;;4974236;28;20600;-76
2021/04/09 01:12:16;;;;;;;2.87;1.53;;;-0.50;99.90;;;;;;4975563;28;20459;-76
2021/04/09 01:14:41;;;;;;;1.67;1.40;;;-0.50;99.90;;;;;;4975298;28;20547;-76
2021/04/09 01:17:25;;;;;;;2.87;1.77;;;-0.60;99.90;;;;;;4975433;28;20196;-77
2021/04/09 01:20:06;;;;;;;2.70;1.90;;;-0.50;99.90;;;;;;4973511;28;20176;-77
2021/04/09 01:23:12;;;;;;;2.73;1.53;;;-0.50;99.90;;;;;;4974088;28;20424;-77
2021/04/09 01:26:05;;;;;;;1.70;1.50;;;-0.50;99.90;;;;;;4973820;28;20424;-77
2021/04/09 01:28:50;;;;;;;3.63;1.47;;;-0.50;99.90;;;;;;4975212;28;20435;-77
2021/04/09 01:31:42;;;;;;;3.93;1.70;;;-0.50;99.90;;;;;;4975394;28;20450;-77
2021/04/09 01:34:09;;;;;;;2.30;1.53;;;-0.50;99.90;;;;;;4966068;28;20435;-77
2021/04/09 01:36:46;;;;;;;5.47;1.40;;;-0.50;99.90;;;;;;4973773;28;20444;-77
2021/04/09 01:39:19;;;;;;;1.50;1.23;;;-0.50;99.90;;;;;;4973756;28;20506;-76
2021/04/09 01:41:49;;;;;;;2.03;1.40;;;-0.50;99.90;;;;;;4975075;28;20732;-76
2021/04/09 01:44:19;;;;;;;1.93;1.30;;;-0.50;99.90;;;;;;4974989;28;20419;-76
2021/04/09 01:46:46;;;;;;;3.40;1.50;;;-0.60;99.90;;;;;;4974949;28;20501;-76
2021/04/09 01:49:12;;;;;;;1.20;1.10;;;;;;;;;;4974805;28;20423;-76
2021/04/09 01:51:39;;;;;;;3.33;1.40;;;-0.70;99.90;;;;;;4973568;28;21105;-76
2021/04/09 01:54:07;;;;;;;3.53;1.60;;;-0.60;99.90;;;;;;4974620;28;20416;-76
2021/04/09 01:56:35;;;;;;;1.80;1.33;;;-0.60;99.90;;;;;;4985119;28;20463;-77
2021/04/09 01:59:01;;;;;;;1.30;1.07;;;-0.60;99.90;;;;;;4989129;28;20404;-76
2021/04/09 02:01:28;;;;;;;3.83;1.33;;;-0.70;99.90;;;;;;4976052;28;20476;-76
2021/04/09 02:03:54;;;;;;;2.23;1.40;;;-0.50;99.90;;;;;;4977093;28;20427;-76
2021/04/09 02:06:21;;;;;;;4.43;1.60;;;-0.70;99.90;;;;;;4975011;28;20423;-76
2021/04/09 02:08:47;;;;;;;3.00;1.60;;;-0.60;99.90;;;;;;4976569;28;20476;-76
2021/04/09 02:11:13;;;;;;;4.50;1.73;;;-0.60;99.90;;;;;;4976293;28;20412;-76
2021/04/09 02:13:40;;;;;;;1.93;1.10;;;;;;;;;;4975441;28;20462;-76
2021/04/09 02:16:06;;;;;;;2.80;1.20;;;-0.60;99.90;;;;;;4975726;28;20404;-76
2021/04/09 02:18:32;;;;;;;1.20;1.10;;;-0.50;99.90;;;;;;4974408;28;20475;-76
2021/04/09 02:21:00;;;;;;;1.83;1.10;;;-0.50;99.90;;;;;;4975218;28;20439;-76
2021/04/09 02:23:26;;;;;;;1.57;1.27;;;-0.60;99.90;;;;;;4974635;28;20231;-76
2021/04/09 02:25:58;;;;;;;1.80;1.00;;;-0.40;99.90;;;;;;4973230;28;20428;-76
2021/04/09 02:28:25;;;;;;;3.83;1.57;;;-0.20;99.90;;;;;;4974707;28;20924;-76
2021/04/09 02:31:03;;;;;;;4.60;1.37;;;-0.30;99.90;;;;;;4973327;28;20420;-76
2021/04/09 02:33:34;;;;;;;1.90;1.17;;;-0.20;99.90;;;;;;4978356;28;20475;-76
2021/04/09 02:36:18;;;;;;;3.43;1.27;;;-0.10;99.90;;;;;;4978187;28;20408;-76
2021/04/09 02:38:48;;;;;;;1.90;1.20;;;-0.10;99.90;;;;;;4978515;28;20392;-77
2021/04/09 02:41:16;;;;;;;6.30;1.30;;;-0.20;99.90;;;;;;4977070;28;20439;-76
2021/04/09 02:43:42;;;;;;;2.67;1.43;;;;;;;;;;4978219;28;20521;-77
2021/04/09 02:46:12;;;;;;;3.50;2.53;;;-0.20;99.90;;;;;;4978000;28;20419;-76
2021/04/09 02:48:50;;;;;;;7.80;3.13;;;-0.20;99.90;;;;;;4978080;28;20483;-76
2021/04/09 02:51:16;;;;;;;14.93;6.13;;;;;;;;;;4978140;28;20403;-76
2021/04/09 02:53:42;;;;;;;12.73;6.17;;;-0.40;99.90;;;;;;4978323;28;20407;-76
2021/04/09 02:56:11;;;;;;;15.93;5.77;;;-0.20;99.90;;;;;;4977866;28;20433;-76
2021/04/09 02:58:38;;;;;;;26.97;10.73;;;-0.30;99.90;;;;;;4976927;28;20536;-76
2021/04/09 03:01:04;;;;;;;13.33;5.30;;;-0.20;99.90;;;;;;4977914;28;20483;-76
2021/04/09 03:03:30;;;;;;;16.07;6.03;;;-0.30;99.90;;;;;;4977923;28;20601;-76
2021/04/09 03:05:58;;;;;;;8.77;4.10;;;-0.50;99.90;;;;;;4978387;28;20821;-76
2021/04/09 03:08:24;;;;;;;9.03;4.87;;;-0.30;99.90;;;;;;4978020;28;20431;-76
2021/04/09 03:10:49;;;;;;;3.90;2.90;;;-0.30;99.90;;;;;;4978353;28;20423;-76
2021/04/09 03:13:16;;;;;;;4.00;2.93;;;-0.30;99.90;;;;;;4978292;28;20200;-76
2021/04/09 03:15:55;;;;;;;2.90;2.50;;;-0.30;99.90;;;;;;4976880;28;20546;-76
2021/04/09 03:18:22;;;;;;;3.40;1.47;;;-0.40;99.90;;;;;;4981003;28;20474;-77
2021/04/09 03:20:48;;;;;;;2.33;1.17;;;-0.30;99.90;;;;;;4977765;28;20412;-76
2021/04/09 03:23:14;;;;;;;1.90;1.27;;;-0.40;99.90;;;;;;4977506;28;20411;-77
2021/04/09 03:25:40;;;;;;;2.40;1.27;;;-0.40;99.90;;;;;;4976060;28;20239;-77
2021/04/09 03:28:07;;;;;;;2.87;1.03;;;-0.40;99.90;;;;;;4976085;28;20462;-76
2021/04/09 03:30:33;;;;;;;1.63;1.20;;;-0.40;99.90;;;;;;4977468;28;20712;-77
2021/04/09 03:32:59;;;;;;;1.47;1.30;;;-0.40;99.90;;;;;;4977544;28;20459;-77
2021/04/09 03:35:25;;;;;;;1.33;1.00;;;;;;;;;;4977072;28;20411;-77
2021/04/09 03:37:51;;;;;;;3.93;1.37;;;-0.40;99.90;;;;;;4975890;28;20204;-77
2021/04/09 03:40:18;;;;;;;1.40;1.27;;;-0.40;99.90;;;;;;4976251;28;21045;-77
2021/04/09 03:42:43;;;;;;;1.10;1.00;;;-0.40;99.90;;;;;;4976668;28;20541;-77
2021/04/09 03:45:10;;;;;;;1.30;1.00;;;-0.40;99.90;;;;;;4976936;28;20422;-77
2021/04/09 03:47:36;;;;;;;1.73;1.23;;;-0.40;99.90;;;;;;4977050;28;20707;-77
2021/04/09 03:50:03;;;;;;;3.30;1.40;;;-0.40;99.90;;;;;;4977390;28;20482;-76
2021/04/09 03:52:29;;;;;;;2.27;1.20;;;;;;;;;;4975739;28;20274;-77
2021/04/09 03:54:54;;;;;;;3.67;1.47;;;-0.40;99.90;;;;;;4976802;28;20467;-76
2021/04/09 03:57:20;;;;;;;1.87;1.20;;;;;;;;;;4977472;28;20462;-76
2021/04/09 03:59:47;;;;;;;3.27;1.40;;;-0.60;99.90;;;;;;4976555;28;20200;-77
2021/04/09 04:02:12;;;;;;;2.37;1.10;;;-0.40;99.90;;;;;;4976075;28;20446;-77
2021/04/09 04:04:38;;;;;;;2.43;1.60;;;-0.50;99.90;;;;;;4977305;28;20902;-77
2021/04/09 04:07:04;;;;;;;3.73;1.03;;;-0.30;99.90;;;;;;4977800;28;20212;-77
2021/04/09 04:09:30;;;;;;;2.97;1.27;;;-0.50;99.90;;;;;;4976847;28;20188;-77
2021/04/09 04:11:57;;;;;;;1.07;1.00;;;-0.40;99.90;;;;;;4977643;28;20460;-77
2021/04/09 04:14:23;;;;;;;1.53;0.90;;;;;;;;;;4977712;28;20207;-76
2021/04/09 04:16:49;;;;;;;1.90;1.20;;;;;;;;;;4977491;28;20427;-77
2021/04/09 04:19:17;;;;;;;3.43;1.13;;;;;;;;;;4977632;28;20267;-77
2021/04/09 04:21:43;;;;;;;1.20;0.93;;;-0.70;99.90;;;;;;4976527;28;20423;-77
2021/04/09 04:24:09;;;;;;;1.57;1.20;;;-0.40;99.90;;;;;;4976249;28;20424;-77
2021/04/09 04:26:35;;;;;;;2.57;1.37;;;;;;;;;;4976241;28;20432;-77
2021/04/09 04:29:02;;;;;;;1.43;1.00;;;-0.40;99.90;;;;;;4976343;28;20443;-77
2021/04/09 04:31:27;;;;;;;1.47;1.00;;;-0.30;99.90;;;;;;4976204;28;20459;-77
2021/04/09 04:33:53;;;;;;;1.97;1.07;;;-0.50;99.90;;;;;;4974986;28;20452;-77
2021/04/09 04:36:19;;;;;;;2.00;1.10;;;-0.60;99.90;;;;;;4976060;28;20203;-77
2021/04/09 04:38:45;;;;;;;2.70;0.90;;;-0.50;99.90;;;;;;4974894;28;20602;-77
2021/04/09 04:41:11;;;;;;;1.77;1.10;;;;;;;;;;4974899;28;20184;-76
2021/04/09 04:43:36;;;;;;;2.73;1.50;;;-0.60;99.90;;;;;;4974790;28;20428;-77
2021/04/09 04:46:02;;;;;;;1.33;1.00;;;-0.70;99.90;;;;;;4975930;28;20921;-77
2021/04/09 04:48:28;;;;;;;4.07;1.40;;;-0.50;99.90;;;;;;4974605;28;20700;-77
2021/04/09 04:50:54;;;;;;;2.23;1.10;;;-0.60;99.90;;;;;;4975972;28;20569;-77
2021/04/09 04:53:20;;;;;;;6.70;1.20;;;-0.50;99.90;;;;;;4975809;28;20584;-77
2021/04/09 04:55:46;;;;;;;3.90;1.43;;;-0.50;99.90;;;;;;4974907;28;20419;-77
2021/04/09 04:58:11;;;;;;;2.37;1.20;;;-0.50;99.90;;;;;;4975949;28;20736;-77
2021/04/09 05:00:37;;;;;;;1.17;1.00;;;-0.40;99.90;;;;;;4975766;28;20180;-76
2021/04/09 05:03:03;;;;;;;2.03;1.13;;;-0.50;99.90;;;;;;4976132;28;20184;-76
2021/04/09 05:05:28;;;;;;;1.47;1.10;;;-0.50;99.90;;;;;;4974403;28;20642;-77
2021/04/09 05:07:54;;;;;;;1.03;0.90;;;;;;;;;;4975867;28;20230;-77
2021/04/09 05:10:20;;;;;;;0.90;0.80;;;;;;;;;;4976199;28;20208;-77
2021/04/09 05:12:46;;;;;;;3.03;1.10;;;-0.10;99.90;;;;;;4975624;28;20460;-77
2021/04/09 05:15:12;;;;;;;1.20;1.07;;;-0.10;99.90;;;;;;4975526;28;20920;-77
2021/04/09 05:17:38;;;;;;;1.17;0.93;;;0.10;99.90;;;;;;4947411;28;20790;-77
2021/04/09 05:20:05;;;;;;;1.20;0.87;;;0.20;99.90;;;;;;4975840;28;20420;-76
2021/04/09 05:22:32;;;;;;;1.57;1.17;;;;;;;;;;4976105;28;20601;-77
2021/04/09 05:24:58;;;;;;;1.27;1.03;;;0.20;99.90;;;;;;4975964;28;20438;-77
2021/04/09 05:27:24;;;;;;;3.10;1.30;;;0.40;99.90;;;;;;4975357;28;21004;-77
2021/04/09 05:29:49;;;;;;;1.27;1.10;;;0.40;99.90;;;;;;4975948;28;20184;-77
2021/04/09 05:32:15;;;;;;;3.43;1.27;;;0.40;99.90;;;;;;4975214;28;20965;-77
2021/04/09 05:34:41;;;;;;;1.73;1.17;;;0.50;99.90;;;;;;4973602;28;20176;-78
2021/04/09 05:37:07;;;;;;;3.10;1.30;;;0.50;99.90;;;;;;4973996;28;20207;-77
2021/04/09 05:39:34;;;;;;;3.47;0.83;;;0.60;99.90;;;;;;4975227;28;20474;-77
2021/04/09 05:42:00;;;;;;;3.43;1.23;;;0.50;99.90;;;;;;4975451;28;20562;-76
2021/04/09 05:44:27;;;;;;;2.30;1.53;;;0.50;99.90;;;;;;4975543;28;20854;-76
2021/04/09 05:46:53;;;;;;;3.47;1.60;;;0.50;99.90;;;;;;4973970;28;20212;-77
2021/04/09 05:49:19;;;;;;;3.17;1.50;;;0.50;99.90;;;;;;4974020;28;20415;-77
2021/04/09 05:51:44;;;;;;;1.20;0.93;;;1.50;99.90;;;;;;4975073;28;20211;-77
2021/04/09 05:54:10;;;;;;;2.73;1.40;;;0.50;99.90;;;;;;4975028;28;20168;-77
2021/04/09 05:56:36;;;;;;;2.27;1.40;;;0.70;99.90;;;;;;4974792;28;20615;-77
2021/04/09 05:59:01;;;;;;;2.20;1.30;;;0.70;99.90;;;;;;4975238;28;20176;-77
2021/04/09 06:01:30;;;;;;;3.43;1.10;;;0.80;99.90;;;;;;4973628;28;20180;-77
2021/04/09 06:03:56;;;;;;;5.77;1.70;;;0.80;99.90;;;;;;4973612;28;20239;-77
2021/04/09 06:06:21;;;;;;;3.33;1.50;;;0.90;99.90;;;;;;4974877;28;20404;-77
2021/04/09 06:08:47;;;;;;;1.30;0.80;;;1.10;99.90;;;;;;4973471;28;20255;-77
2021/04/09 06:11:13;;;;;;;2.57;1.20;;;1.00;99.90;;;;;;4974979;28;20259;-77
2021/04/09 06:13:39;;;;;;;0.77;0.70;;;1.20;99.90;;;;;;4975434;28;20204;-77
2021/04/09 06:16:05;;;;;;;2.57;1.20;;;2.00;99.90;;;;;;4975173;28;20451;-77
2021/04/09 06:18:31;;;;;;;1.27;0.90;;;1.30;99.50;;;;;;4975685;28;20196;-76
2021/04/09 06:20:57;;;;;;;3.13;1.20;;;1.40;99.10;;;;;;4972982;28;20837;-77
2021/04/09 06:23:23;;;;;;;3.97;1.30;;;1.50;99.20;;;;;;4975819;28;20423;-75
2021/04/09 06:25:49;;;;;;;1.30;0.97;;;1.60;99.10;;;;;;4977633;28;20565;-76
2021/04/09 06:28:15;;;;;;;3.57;1.17;;;1.70;98.60;;;;;;4974796;28;20188;-76
2021/04/09 06:30:41;;;;;;;1.67;1.40;;;1.80;98.60;;;;;;4973484;28;20426;-76
2021/04/09 06:33:07;;;;;;;2.43;1.37;;;1.90;98.20;;;;;;4973413;28;20203;-76
2021/04/09 06:35:32;;;;;;;2.20;1.40;;;2.00;97.90;;;;;;4973324;28;20183;-76
2021/04/09 06:37:58;;;;;;;2.87;1.43;;;2.10;97.80;;;;;;4974589;28;20240;-76
2021/04/09 06:40:24;;;;;;;5.03;1.37;;;2.20;97.50;;;;;;4974487;28;20177;-76
2021/04/09 06:42:57;;;;;;;6.40;2.77;;;2.30;97.20;;;;;;4974335;28;20709;-76
2021/04/09 06:45:24;;;;;;;26.43;10.37;;;2.40;97.00;;;;;;4972657;28;20424;-76
2021/04/09 06:47:52;;;;;;;19.37;7.63;;;2.60;96.70;;;;;;4974267;28;20452;-76
2021/04/09 06:50:18;;;;;;;40.93;16.67;;;2.70;96.40;;;;;;4974728;28;20414;-76
2021/04/09 06:52:44;;;;;;;27.33;9.37;;;2.90;95.80;;;;;;4974531;28;20810;-77
2021/04/09 06:55:10;;;;;;;26.13;11.90;;;3.10;95.50;;;;;;4974109;28;20173;-76
2021/04/09 06:57:39;;;;;;;13.63;8.33;;;3.20;95.20;;;;;;4973978;28;20208;-76
2021/04/09 07:00:10;;;;;;;6.97;3.00;;;3.40;94.80;;;;;;4974438;28;20458;-76
2021/04/09 07:02:36;;;;;;;2.87;2.17;;;3.50;94.50;;;;;;4974245;28;20424;-76
2021/04/09 07:05:03;;;;;;;2.57;1.90;;;3.60;94.20;;;;;;4973994;28;20438;-76
2021/04/09 07:07:29;;;;;;;3.57;2.10;;;3.80;94.20;;;;;;4972835;28;20812;-76
2021/04/09 07:09:55;;;;;;;2.90;1.87;;;4.00;93.70;;;;;;4974090;28;20423;-76
2021/04/09 07:12:29;;;;;;;4.80;2.37;;;4.20;93.50;;;;;;4974001;28;20208;-76
2021/04/09 07:15:09;;;;;;;3.50;1.87;;;4.60;92.80;;;;;;4974839;28;20164;-76
2021/04/09 07:17:44;;;;;;;1.73;1.60;;;5.20;91.20;;;;;;4972770;28;20443;-76
2021/04/09 07:20:20;;;;;;;4.37;2.20;;;5.70;89.10;;;;;;4977882;28;20387;-76
2021/04/09 07:22:50;;;;;;;3.40;2.27;;;6.30;86.50;;;;;;4977551;28;20493;-76
2021/04/09 07:25:21;;;;;;;3.43;1.97;;;6.70;83.20;;;;;;4976209;28;20271;-76
2021/04/09 07:27:49;;;;;;;6.97;1.90;;;7.10;78.70;;;;;;4977475;28;20434;-76
2021/04/09 07:30:26;;;;;;;2.40;1.60;;;7.30;76.40;;;;;;4976326;28;20548;-76
2021/04/09 07:32:52;;;;;;;3.60;1.87;;;7.50;74.00;;;;;;4977550;28;20208;-76
2021/04/09 07:35:18;;;;;;;3.00;1.40;;;7.80;71.90;;;;;;4977240;28;20647;-76
2021/04/09 07:37:48;;;;;;;3.17;1.50;;;8.20;70.80;;;;;;4975986;28;20247;-77
2021/04/09 07:40:40;;;;;;;2.80;2.10;;;8.70;69.80;;;;;;4976118;28;20184;-77
2021/04/09 07:43:16;;;;;;;8.67;1.87;;;9.40;67.80;;;;;;4975261;28;20204;-77
2021/04/09 07:45:42;;;;;;;4.27;1.77;;;9.80;65.40;;;;;;4977115;28;20304;-77
2021/04/09 07:48:08;;;;;;;3.07;1.90;;;10.30;62.10;;;;;;4977095;28;20238;-77
2021/04/09 07:50:41;;;;;;;3.63;1.90;;;10.30;59.80;;;;;;4977037;28;20178;-77
2021/04/09 07:53:18;;;;;;;4.50;1.67;;;10.30;58.80;;;;;;4975768;28;20199;-77
2021/04/09 07:55:44;;;;;;;4.43;1.50;;;10.50;59.00;;;;;;4975764;28;20246;-77
2021/04/09 07:58:23;;;;;;;3.00;1.60;;;11.10;57.40;;;;;;4976982;28;20207;-77
2021/04/09 08:00:51;;;;;;;3.37;1.70;;;11.30;56.00;;;;;;4976909;28;20179;-77
2021/04/09 08:03:30;;;;;;;5.63;1.70;;;11.50;53.90;;;;;;4976931;28;20181;-77
2021/04/09 08:06:15;;;;;;;5.67;1.47;;;11.50;53.40;;;;;;4976810;28;20177;-77
2021/04/09 08:08:59;;;;;;;2.80;1.40;;;11.80;53.70;;;;;;4977107;28;20194;-77
2021/04/09 08:11:45;;;;;;;5.27;2.97;;;12.90;51.90;;;;;;4976972;28;20263;-77
2021/04/09 08:14:21;;;;;;;2.47;1.40;;;13.50;51.90;;;;;;4976924;28;20191;-77
2021/04/09 08:16:49;;;;;;;5.57;1.67;;;13.70;49.50;;;;;;4976673;28;20198;-77
2021/04/09 08:19:24;;;;;;;3.10;1.50;;;13.60;48.60;;;;;;4975490;28;20208;-77
2021/04/09 08:21:52;;;;;;;3.10;1.33;;;13.50;47.60;;;;;;4976661;28;20176;-77
2021/04/09 08:24:22;;;;;;;3.93;1.47;;;13.70;47.50;;;;;;4976416;28;20693;-77
2021/04/09 08:26:49;;;;;;;4.07;1.10;;;13.90;46.40;;;;;;4976595;28;20188;-77
2021/04/09 08:29:16;;;;;;;5.03;1.47;;;14.20;46.70;;;;;;4975715;28;20188;-77
2021/04/09 08:31:42;;;;;;;5.13;1.33;;;14.00;44.40;;;;;;4975759;28;20201;-77
2021/04/09 08:34:09;;;;;;;3.30;1.43;;;14.00;44.50;;;;;;4976942;28;20169;-77
2021/04/09 08:36:40;;;;;;;2.90;1.50;;;14.20;44.50;;;;;;4977079;28;20212;-77
2021/04/09 08:39:09;;;;;;;3.83;1.20;;;14.80;45.20;;;;;;4976950;28;20172;-77
2021/04/09 08:41:39;;;;;;;2.70;1.27;;;15.30;44.50;;;;;;4976817;28;20192;-77
2021/04/09 08:44:09;;;;;;;4.47;1.23;;;16.10;42.20;;;;;;4976851;28;20551;-77
2021/04/09 08:46:36;;;;;;;2.47;1.40;;;16.30;41.30;;;;;;4975330;28;20615;-78
2021/04/09 08:49:03;;;;;;;4.77;1.37;;;16.20;41.90;;;;;;4976407;28;20173;-77
2021/04/09 08:51:29;;;;;;;3.17;1.53;;;16.90;41.00;;;;;;4976486;28;20540;-77
2021/04/09 08:53:55;;;;;;;3.37;1.60;;;16.40;40.00;;;;;;4976588;28;20717;-77
2021/04/09 08:56:36;;;;;;;3.03;1.50;;;16.50;41.00;;;;;;4976640;28;20259;-77
2021/04/09 08:59:03;;;;;;;2.63;1.43;;;16.90;41.30;;;;;;4976661;28;20165;-77
2021/04/09 09:01:29;;;;;;;4.20;1.27;;;17.10;40.70;;;;;;4975223;28;20183;-77
2021/04/09 09:04:20;;;;;;;2.17;1.30;;;16.50;36.30;;;;;;4976171;28;20638;-77
2021/04/09 09:06:47;;;;;;;2.10;1.20;;;16.30;38.20;;;;;;4975040;28;20223;-77
2021/04/09 09:09:30;;;;;;;2.50;1.30;;;16.60;38.50;;;;;;4976462;28;20540;-77
2021/04/09 09:11:57;;;;;;;3.93;1.20;;;16.60;37.50;;;;;;4976440;28;20223;-77
2021/04/09 09:14:35;;;;;;;2.30;1.50;;;16.40;37.90;;;;;;4974930;28;20583;-77
2021/04/09 09:17:21;;;;;;;5.50;1.37;;;16.40;36.90;;;;;;4976289;28;20590;-77
2021/04/09 09:19:49;;;;;;;2.57;1.27;;;16.60;37.30;;;;;;4975096;28;20224;-77
2021/04/09 09:22:20;;;;;;;19.43;12.43;;;16.50;36.30;;;;;;4976007;28;20693;-78
2021/04/09 09:25:05;;;;;;;6.40;2.87;;;16.10;35.90;;;;;;4974809;28;20196;-78
2021/04/09 09:27:48;;;;;;;3.33;2.60;;;16.20;38.70;;;;;;4976929;28;20290;-78
2021/04/09 09:30:33;;;;;;;3.67;2.13;;;16.40;37.60;;;;;;4976829;28;20164;-78
2021/04/09 09:33:22;;;;;;;5.07;1.53;;;16.80;38.60;;;;;;4977554;28;20187;-78
2021/04/09 09:36:09;;;;;;;1.50;1.00;;;16.90;38.30;;;;;;4976486;28;20591;-78
2021/04/09 09:38:55;;;;;;;1.67;1.50;;;17.20;36.70;;;;;;4975665;28;20203;-77
2021/04/09 09:41:36;;;;;;;2.20;1.27;;;17.00;39.20;;;;;;4976053;28;20639;-78
2021/04/09 09:44:23;;;;;;;2.43;1.27;;;17.20;37.00;;;;;;4976657;28;20220;-77
2021/04/09 09:46:57;;;;;;;2.77;1.40;;;17.80;39.10;;;;;;4976706;28;20251;-77
2021/04/09 09:49:25;;;;;;;2.10;1.30;;;17.40;35.30;;;;;;4975789;28;20259;-77
2021/04/09 09:51:51;;;;;;;3.13;1.80;;;17.40;35.30;;;;;;4976202;28;20191;-77
2021/04/09 09:54:20;;;;;;;1.80;1.17;;;17.40;36.00;;;;;;4977343;28;20178;-77
2021/04/09 09:56:46;;;;;;;2.23;1.40;;;17.20;34.10;;;;;;4976929;28;20208;-77
2021/04/09 09:59:19;;;;;;;2.10;1.73;;;17.10;32.60;;;;;;4977585;28;20171;-78
2021/04/09 10:01:53;;;;;;;3.17;1.60;;;17.40;32.90;;;;;;4976897;28;20725;-77
2021/04/09 10:04:19;;;;;;;3.33;1.47;;;17.70;34.20;;;;;;4976824;28;20456;-78
2021/04/09 10:06:50;;;;;;;2.00;1.50;;;17.50;32.30;;;;;;4975358;28;20235;-78
2021/04/09 10:09:28;;;;;;;3.97;1.80;;;17.40;31.50;;;;;;4975305;28;20227;-78
2021/04/09 10:11:54;;;;;;;1.77;1.47;;;17.60;30.30;;;;;;4977496;28;20184;-78
2021/04/09 10:14:20;;;;;;;6.53;4.30;;;17.50;30.30;;;;;;4976577;28;20210;-77
2021/04/09 10:16:46;;;;;;;2.40;1.17;;;17.40;31.40;;;;;;4979921;28;20564;-78
2021/04/09 10:19:11;;;;;;;3.83;2.30;;;17.40;30.60;;;;;;4995843;28;20668;-77
2021/04/09 10:21:40;;;;;;;1.93;1.43;;;17.30;30.00;;;;;;4996150;28;20171;-77
2021/04/09 10:24:07;;;;;;;1.50;1.30;;;17.40;29.80;;;;;;4994916;28;20172;-80
2021/04/09 10:26:35;;;;;;;1.97;1.30;;;17.30;29.00;;;;;;4988216;28;20613;-78
2021/04/09 10:29:01;;;;;;;1.83;1.20;;;16.90;28.60;;;;;;4977153;28;20176;-78
2021/04/09 10:31:27;;;;;;;2.37;1.80;;;16.90;31.10;;;;;;4979664;28;20174;-77
2021/04/09 10:33:54;;;;;;;2.00;1.37;;;16.90;30.10;;;;;;4996390;28;20159;-78
2021/04/09 10:36:20;;;;;;;4.77;1.47;;;16.90;30.10;;;;;;4996013;28;20533;-78
2021/04/09 10:38:51;;;;;;;2.43;1.60;;;17.10;31.10;;;;;;4978663;28;20185;-77
2021/04/09 10:41:47;;;;;;;3.70;1.47;;;17.00;29.30;;;;;;4976526;28;20172;-78
2021/04/09 10:44:19;;;;;;;5.13;1.70;;;16.80;30.00;;;;;;4987826;28;20168;-78
2021/04/09 10:46:47;;;;;;;3.87;1.57;;;17.30;32.10;;;;;;5018886;28;20662;-78
2021/04/09 10:49:17;;;;;;;2.97;1.50;;;17.60;30.40;;;;;;4995428;28;20214;-78
2021/04/09 10:51:55;;;;;;;3.50;1.60;;;17.70;29.90;;;;;;4995248;28;20204;-78
2021/04/09 10:54:29;;;;;;;2.57;1.60;;;17.50;30.30;;;;;;4983533;28;20583;-77
2021/04/09 10:56:57;;;;;;;2.33;1.70;;;17.40;29.60;;;;;;4984338;28;20211;-78
2021/04/09 10:59:28;;;;;;;1.73;1.60;;;17.20;28.50;;;;;;4998918;28;20172;-78
2021/04/09 11:01:55;;;;;;;2.10;1.40;;;17.20;28.40;;;;;;4982983;28;20223;-78
2021/04/09 11:04:22;;;;;;;1.73;1.47;;;17.10;29.60;;;;;;4978209;28;20263;-78
2021/04/09 11:06:59;;;;;;;2.97;1.73;;;17.20;30.00;;;;;;4979222;28;20198;-77
2021/04/09 11:09:44;;;;;;;2.37;1.90;;;17.40;30.40;;;;;;4979029;28;20192;-77
2021/04/09 11:12:29;;;;;;;3.27;1.60;;;17.80;30.00;;;;;;4978360;28;20540;-77
2021/04/09 11:15:12;;;;;;;3.47;1.50;;;17.70;29.40;;;;;;4978192;28;20173;-77
2021/04/09 11:17:50;;;;;;;2.37;1.30;;;17.90;31.30;;;;;;4978125;28;20188;-77
2021/04/09 11:20:30;;;;;;;4.73;1.87;;;17.90;29.40;;;;;;4983252;28;20637;-78
2021/04/09 11:23:04;;;;;;;1.70;1.53;;;17.70;32.20;;;;;;4977437;28;20196;-77
2021/04/09 11:25:41;;;;;;;1.47;1.37;;;17.10;30.10;;;;;;4985666;28;20610;-77
2021/04/09 11:28:19;;;;;;;1.23;1.13;;;16.40;28.50;;;;;;4985574;28;20196;-77
2021/04/09 11:30:58;;;;;;;2.00;1.40;;;16.70;27.30;;;;;;4978409;28;20268;-78
2021/04/09 11:33:39;;;;;;;2.87;1.60;;;17.40;28.60;;;;;;4978462;28;20192;-78
2021/04/09 11:36:22;;;;;;;1.70;1.33;;;18.20;27.50;;;;;;4984678;28;20169;-78
2021/04/09 11:38:49;;;;;;;2.77;1.40;;;17.80;26.70;;;;;;4978465;28;20255;-77
2021/04/09 11:41:35;;;;;;;2.90;1.30;;;18.10;27.00;;;;;;4994736;28;20176;-79
2021/04/09 11:44:24;;;;;;;1.50;1.40;;;17.50;26.70;;;;;;4984009;28;20184;-77
2021/04/09 11:46:49;;;;;;;4.30;1.47;;;17.40;27.00;;;;;;4978456;28;20673;-77
2021/04/09 11:49:15;;;;;;;4.80;1.20;;;17.20;26.40;;;;;;4997881;28;20191;-78
2021/04/09 11:51:41;;;;;;;1.90;1.37;;;17.00;26.70;;;;;;5030172;28;20204;-77
2021/04/09 11:54:23;;;;;;;4.77;1.27;;;16.70;26.20;;;;;;4998411;28;20210;-78
2021/04/09 11:56:49;;;;;;;1.63;1.30;;;16.30;27.20;;;;;;4996527;28;20687;-78
2021/04/09 11:59:20;;;;;;;3.37;1.90;;;16.30;28.30;;;;;;5000469;28;20183;-77
2021/04/09 12:01:48;;;;;;;4.03;2.07;;;16.10;27.60;;;;;;5001530;28;20168;-77
2021/04/09 12:04:31;;;;;;;2.13;1.50;;;16.00;28.00;;;;;;5003929;28;20176;-77
2021/04/09 12:06:57;;;;;;;2.27;1.30;;;16.00;28.40;;;;;;5003618;28;20282;-77
2021/04/09 12:09:27;;;;;;;4.40;1.60;;;15.90;27.40;;;;;;5012280;28;20186;-76
2021/04/09 12:11:53;;;;;;;3.70;1.63;;;16.00;28.50;;;;;;5005197;28;20182;-77
2021/04/09 12:14:36;;;;;;;2.77;1.63;;;16.10;29.10;;;;;;5000225;28;20656;-78
2021/04/09 12:17:03;;;;;;;2.03;1.20;;;16.10;28.30;;;;;;4999586;28;20556;-77
2021/04/09 12:19:29;;;;;;;2.67;1.37;;;16.00;28.70;;;;;;4998981;28;20185;-77
2021/04/09 12:21:54;;;;;;;2.03;1.40;;;16.00;28.60;;;;;;5000824;28;20529;-78
2021/04/09 12:24:20;;;;;;;4.00;1.53;;;16.00;28.00;;;;;;4999823;28;20181;-78
2021/04/09 12:26:46;;;;;;;4.03;1.67;;;16.20;28.30;;;;;;4998648;28;20205;-77
2021/04/09 12:29:12;;;;;;;3.10;1.63;;;16.50;28.10;;;;;;4996606;28;20545;-78
2021/04/09 12:31:38;;;;;;;4.23;1.40;;;16.70;27.70;;;;;;4999282;28;20177;-77
2021/04/09 12:34:04;;;;;;;4.97;1.77;;;16.50;26.80;;;;;;4998842;28;20499;-77
2021/04/09 12:36:30;;;;;;;3.40;1.90;;;16.60;27.10;;;;;;4998531;28;20372;-78
2021/04/09 12:39:00;;;;;;;4.17;1.70;;;17.10;27.30;;;;;;5001623;28;20205;-78
2021/04/09 12:41:26;;;;;;;3.47;1.60;;;17.40;26.30;;;;;;5001424;28;20264;-78
2021/04/09 12:43:51;;;;;;;6.07;1.40;;;17.10;25.80;;;;;;4999909;28;20240;-77
2021/04/09 12:46:17;;;;;;;2.13;1.40;;;17.10;27.00;;;;;;4999264;28;20640;-78
2021/04/09 12:48:42;;;;;;;2.60;1.30;;;17.10;26.30;;;;;;4996458;28;20262;-77
2021/04/09 12:51:09;;;;;;;2.47;1.53;;;17.40;26.80;;;;;;4998501;28;20259;-78
2021/04/09 12:53:35;;;;;;;3.03;1.53;;;17.00;27.30;;;;;;4999515;28;20254;-78
2021/04/09 12:56:00;;;;;;;2.73;1.50;;;16.60;26.70;;;;;;4997050;28;20602;-77
2021/04/09 12:58:26;;;;;;;3.03;1.20;;;16.20;27.30;;;;;;4995569;28;20558;-76
2021/04/09 13:00:52;;;;;;;3.37;1.83;;;16.00;27.60;;;;;;4996304;28;20177;-76
2021/04/09 13:03:17;;;;;;;5.43;2.03;;;15.90;27.70;;;;;;4996964;28;20221;-77
2021/04/09 13:05:43;;;;;;;6.30;1.60;;;16.00;28.20;;;;;;4996904;28;20172;-76